Time;durP1;ratioP1;P1;durP2;ratioP2;P2;SDS_P1;SDS_P2;PMS_P1;PMS_P2;Temp;Humidity;BMP_temperature;BMP_pressure;BME280_temperature;BME280_humidity;BME280_pressure;Samples;Min_cycle;Max_cycle;Signal;HPM_P1;HPM_P2
2022/04/22 00:01:25;;;;;;;2.47;2.25;;;13.10;99.90;;;;;;5096684;28;20408;-28
2022/04/22 00:03:51;;;;;;;6.13;2.50;;;13.10;99.90;;;;;;5096888;28;20066;-32
2022/04/22 00:06:16;;;;;;;5.43;2.47;;;13.10;99.90;;;;;;5095797;28;20031;-30
2022/04/22 00:08:42;;;;;;;4.45;2.10;;;13.10;99.90;;;;;;5094566;28;20472;-29
2022/04/22 00:13:53;;;;;;;5.25;2.58;;;13.00;99.90;;;;;;5090477;28;20047;-29
2022/04/22 00:16:18;;;;;;;5.25;3.33;;;13.00;99.90;;;;;;5099455;28;20043;-31
2022/04/22 00:18:44;;;;;;;4.10;2.78;;;13.10;99.90;;;;;;5094783;28;20059;-31
2022/04/22 00:21:10;;;;;;;6.25;2.85;;;13.10;99.90;;;;;;5088000;28;20030;-34
2022/04/22 00:23:36;;;;;;;5.82;3.30;;;13.10;99.90;;;;;;5093424;28;20453;-31
2022/04/22 00:26:02;;;;;;;3.72;2.67;;;13.00;99.90;;;;;;5096340;28;20074;-30
2022/04/22 00:28:28;;;;;;;6.72;3.42;;;13.00;99.90;;;;;;5093836;28;20192;-30
2022/04/22 00:30:54;;;;;;;4.68;3.38;;;12.90;99.90;;;;;;5095145;28;20028;-32
2022/04/22 00:33:20;;;;;;;4.15;3.50;;;12.90;99.90;;;;;;5093111;28;20036;-30
2022/04/22 00:35:46;;;;;;;3.65;2.72;;;12.90;99.90;;;;;;5095589;28;20382;-32
2022/04/22 00:38:12;;;;;;;3.72;3.10;;;12.80;99.90;;;;;;5116135;28;20076;-35
2022/04/22 00:40:38;;;;;;;4.68;3.25;;;12.80;99.90;;;;;;5096123;28;20080;-30
2022/04/22 00:43:21;;;;;;;9.50;3.33;;;12.80;99.90;;;;;;5094627;28;20476;-32
2022/04/22 00:45:48;;;;;;;4.60;3.42;;;12.80;99.90;;;;;;5095779;28;20080;-29
2022/04/22 00:48:15;;;;;;;3.50;3.10;;;12.70;99.90;;;;;;5102821;28;20467;-29
2022/04/22 00:50:42;;;;;;;3.72;3.10;;;12.70;99.90;;;;;;5100415;28;20023;-43
2022/04/22 00:53:08;;;;;;;6.78;3.30;;;12.70;99.90;;;;;;5097678;28;20039;-35
2022/04/22 00:55:36;;;;;;;4.15;3.65;;;12.60;99.90;;;;;;5100876;28;20119;-32
2022/04/22 00:58:02;;;;;;;5.13;3.65;;;12.50;99.90;;;;;;5078903;28;20032;-31
2022/04/22 01:00:28;;;;;;;5.45;3.00;;;12.50;99.90;;;;;;5095243;28;20481;-34
2022/04/22 01:02:54;;;;;;;5.07;3.30;;;12.50;99.90;;;;;;5101152;28;20034;-33
2022/04/22 01:11:08;;;;;;;4.97;3.20;;;12.30;99.90;;;;;;5095048;28;20050;-32
2022/04/22 01:13:34;;;;;;;7.55;3.53;;;12.30;99.90;;;;;;5092736;28;20491;-36
2022/04/22 01:15:59;;;;;;;9.45;3.58;;;12.30;99.90;;;;;;5095252;28;20020;-30
2022/04/22 01:18:25;;;;;;;4.65;3.65;;;12.30;99.90;;;;;;5092847;28;20101;-30
2022/04/22 01:20:50;;;;;;;3.50;2.83;;;12.30;99.90;;;;;;5093926;28;20020;-29
2022/04/22 01:23:16;;;;;;;5.82;3.70;;;12.30;99.90;;;;;;5100988;28;20031;-28
2022/04/22 01:25:42;;;;;;;4.70;3.60;;;12.20;99.90;;;;;;5109688;28;20027;-30
2022/04/22 01:28:09;;;;;;;5.95;4.10;;;12.10;99.90;;;;;;5093767;28;20032;-31
2022/04/22 01:30:36;;;;;;;4.55;3.30;;;12.10;99.90;;;;;;5097132;28;20018;-30
2022/04/22 01:33:02;;;;;;;6.82;3.83;;;12.10;99.90;;;;;;5094274;28;20396;-29
2022/04/22 01:35:27;;;;;;;5.70;3.50;;;12.20;99.90;;;;;;5094480;28;20024;-30
2022/04/22 01:37:53;;;;;;;5.63;3.90;;;12.20;99.90;;;;;;5093836;28;20439;-39
2022/04/22 01:40:18;;;;;;;6.20;3.45;;;12.20;99.90;;;;;;5088714;28;20104;-30
2022/04/22 01:42:44;;;;;;;7.57;3.75;;;12.00;99.90;;;;;;5100911;28;20031;-34
2022/04/22 01:45:14;;;;;;;3.55;2.75;;;12.00;99.90;;;;;;5094767;28;20373;-32
2022/04/22 01:47:40;;;;;;;5.57;3.65;;;12.00;99.90;;;;;;5093672;28;20473;-33
2022/04/22 01:50:07;;;;;;;7.53;3.58;;;12.00;99.90;;;;;;5095174;28;20074;-31
2022/04/22 01:52:34;;;;;;;9.63;3.80;;;12.10;99.90;;;;;;5095660;28;20059;-29
2022/04/22 01:54:59;;;;;;;5.40;3.30;;;12.10;99.90;;;;;;5097453;28;20579;-29
2022/04/22 01:57:25;;;;;;;4.90;3.42;;;12.10;99.90;;;;;;5092227;28;20107;-30
2022/04/22 01:59:50;;;;;;;6.72;3.47;;;12.10;99.90;;;;;;5096993;28;20030;-31
2022/04/22 02:02:17;;;;;;;10.15;3.85;;;12.00;99.90;;;;;;5094014;28;20061;-30
2022/04/22 02:04:43;;;;;;;12.57;3.55;;;12.00;99.90;;;;;;5104705;28;20500;-30
2022/04/22 02:07:09;;;;;;;7.38;3.38;;;11.90;99.90;;;;;;5092742;28;20555;-32
2022/04/22 02:09:35;;;;;;;6.55;3.55;;;11.80;99.90;;;;;;5092667;28;20039;-31
2022/04/22 02:12:01;;;;;;;4.70;3.40;;;11.80;99.90;;;;;;5094306;28;20471;-29
2022/04/22 02:14:27;;;;;;;7.72;3.10;;;11.80;99.90;;;;;;5093404;28;20024;-31
2022/04/22 02:16:53;;;;;;;6.18;3.38;;;11.80;99.90;;;;;;5092225;28;20091;-29
2022/04/22 02:19:19;;;;;;;7.20;4.00;;;11.80;99.90;;;;;;5093369;28;20031;-30
2022/04/22 02:21:45;;;;;;;6.05;3.40;;;11.80;99.90;;;;;;5093564;28;20024;-30
2022/04/22 02:24:10;;;;;;;7.25;3.83;;;11.80;99.90;;;;;;5091073;28;20020;-34
2022/04/22 02:29:21;;;;;;;6.00;2.85;;;11.60;99.90;;;;;;5094393;28;20043;-30
2022/04/22 02:31:48;;;;;;;6.10;3.90;;;11.60;99.90;;;;;;5093612;28;20024;-31
2022/04/22 02:34:14;;;;;;;10.95;3.17;;;11.50;99.90;;;;;;5090680;28;20059;-33
2022/04/22 02:36:44;;;;;;;5.68;3.28;;;11.50;99.90;;;;;;5101630;28;20106;-32
2022/04/22 02:39:09;;;;;;;10.50;3.55;;;11.40;99.90;;;;;;5091499;28;20476;-31
2022/04/22 02:47:23;;;;;;;6.50;3.17;;;11.30;99.90;;;;;;5105278;28;20043;-29
2022/04/22 02:49:49;;;;;;;5.95;3.38;;;11.30;99.90;;;;;;5094098;28;20472;-30
2022/04/22 02:52:15;;;;;;;5.13;3.13;;;11.30;99.90;;;;;;5090228;28;20039;-30
2022/04/22 02:54:41;;;;;;;7.30;3.35;;;11.30;99.90;;;;;;5098079;28;20027;-31
2022/04/22 02:57:08;;;;;;;6.75;3.13;;;11.30;99.90;;;;;;5094137;28;20024;-33
2022/04/22 02:59:39;;;;;;;4.10;2.85;;;11.30;99.90;;;;;;5092691;28;20028;-34
2022/04/22 03:02:06;;;;;;;5.50;3.45;;;11.20;99.90;;;;;;5092191;28;20036;-30
2022/04/22 03:04:32;;;;;;;5.13;3.08;;;11.20;99.90;;;;;;5092494;28;20020;-32
2022/04/22 03:06:57;;;;;;;4.70;3.25;;;11.20;99.90;;;;;;5093655;28;20035;-30
2022/04/22 03:09:23;;;;;;;9.63;3.92;;;11.20;99.90;;;;;;5091068;28;20024;-34
2022/04/22 03:11:49;;;;;;;8.63;2.97;;;11.20;99.90;;;;;;5092516;28;20024;-33
2022/04/22 03:14:15;;;;;;;6.80;3.53;;;11.10;99.90;;;;;;5100959;28;20054;-32
2022/04/22 03:16:42;;;;;;;5.50;3.25;;;11.10;99.90;;;;;;5113977;28;20016;-29
2022/04/22 03:19:08;;;;;;;7.07;3.53;;;11.00;99.90;;;;;;5101944;28;20042;-31
2022/04/22 03:21:34;;;;;;;7.93;3.30;;;11.00;99.90;;;;;;5093438;28;20028;-30
2022/04/22 03:24:00;;;;;;;4.65;3.20;;;11.00;99.90;;;;;;5097842;28;20028;-32
2022/04/22 03:26:26;;;;;;;3.88;2.97;;;11.00;99.90;;;;;;5092306;28;20035;-29
2022/04/22 03:28:52;;;;;;;5.07;3.45;;;11.00;99.90;;;;;;5096563;28;20020;-31
2022/04/22 03:31:18;;;;;;;8.00;3.42;;;11.00;99.90;;;;;;5105848;28;20384;-32
2022/04/22 03:33:44;;;;;;;6.22;3.30;;;10.90;99.90;;;;;;5097594;28;20039;-44
2022/04/22 03:36:10;;;;;;;5.15;3.38;;;10.90;99.90;;;;;;5102564;28;20385;-29
2022/04/22 03:38:36;;;;;;;8.30;4.13;;;10.80;99.90;;;;;;5098580;28;20503;-33
2022/04/22 03:41:02;;;;;;;8.55;3.78;;;10.90;99.90;;;;;;5099509;28;20484;-29
2022/04/22 03:43:28;;;;;;;6.75;3.63;;;10.80;99.90;;;;;;5100174;28;20108;-29
2022/04/22 03:45:53;;;;;;;7.15;4.22;;;10.90;99.90;;;;;;5101971;28;20070;-32
2022/04/22 03:48:20;;;;;;;6.55;3.78;;;10.90;99.90;;;;;;5098389;28;20035;-29
2022/04/22 03:50:46;;;;;;;6.35;3.97;;;10.80;99.90;;;;;;5099221;28;20101;-29
2022/04/22 03:53:12;;;;;;;8.20;4.65;;;10.80;99.90;;;;;;5098523;28;20047;-29
2022/04/22 03:55:39;;;;;;;9.43;4.13;;;10.70;99.90;;;;;;5079527;28;20017;-29
2022/04/22 03:58:11;;;;;;;7.00;3.70;;;10.80;99.90;;;;;;5079523;28;20032;-31
2022/04/22 04:00:51;;;;;;;10.95;4.10;;;10.80;99.90;;;;;;5088574;28;20146;-31
2022/04/22 04:03:16;;;;;;;7.68;4.43;;;10.80;99.90;;;;;;5098064;28;20031;-30
2022/04/22 04:05:47;;;;;;;7.20;4.13;;;10.80;99.90;;;;;;5098121;28;20070;-32
2022/04/22 04:08:13;;;;;;;9.23;5.07;;;10.80;99.90;;;;;;5099306;28;20114;-29
2022/04/22 04:16:07;;;;;;;10.43;4.38;;;10.60;99.90;;;;;;5088565;28;20511;-29
2022/04/22 04:18:35;;;;;;;9.60;5.00;;;10.60;99.90;;;;;;5097055;28;20036;-29
2022/04/22 04:23:47;;;;;;;8.25;4.70;;;10.60;99.90;;;;;;5099729;28;20093;-29
2022/04/22 04:26:15;;;;;;;6.53;4.20;;;10.50;99.90;;;;;;5098080;28;20036;-30
2022/04/22 04:28:42;;;;;;;5.95;4.60;;;10.40;99.90;;;;;;5098558;28;20031;-29
2022/04/22 04:31:08;;;;;;;9.60;5.07;;;10.40;99.90;;;;;;5099232;28;20023;-33
2022/04/22 04:33:37;;;;;;;12.50;5.57;;;10.30;99.90;;;;;;5097291;28;20480;-29
2022/04/22 04:36:04;;;;;;;9.57;4.38;;;10.30;99.90;;;;;;5101293;28;20035;-31
2022/04/22 04:38:29;;;;;;;9.57;5.65;;;10.20;99.90;;;;;;5085784;28;20034;-37
2022/04/22 04:40:55;;;;;;;7.03;4.40;;;10.20;99.90;;;;;;5093598;28;20395;-31
2022/04/22 04:43:22;;;;;;;14.88;5.03;;;10.20;99.90;;;;;;5098757;28;20028;-33
2022/04/22 04:45:49;;;;;;;7.50;4.78;;;10.20;99.90;;;;;;5095587;28;20020;-31
2022/04/22 04:48:15;;;;;;;8.55;4.90;;;10.10;99.90;;;;;;5093883;28;20082;-29
2022/04/22 04:50:43;;;;;;;5.57;3.85;;;10.20;99.90;;;;;;5094083;28;20121;-35
2022/04/22 04:53:09;;;;;;;5.85;3.63;;;10.10;99.90;;;;;;5095312;28;20024;-29
2022/04/22 04:55:35;;;;;;;10.52;4.85;;;10.10;99.90;;;;;;5099198;28;20031;-29
2022/04/22 04:58:00;;;;;;;11.50;5.38;;;10.10;99.90;;;;;;5095930;28;20527;-30
2022/04/22 05:00:26;;;;;;;10.35;5.47;;;10.20;99.90;;;;;;5094556;28;20066;-28
2022/04/22 05:02:52;;;;;;;9.73;4.90;;;10.20;99.90;;;;;;5093616;28;20174;-33
2022/04/22 05:05:17;;;;;;;6.53;4.53;;;10.20;99.90;;;;;;5105037;28;20024;-28
2022/04/22 05:08:01;;;;;;;9.75;5.38;;;10.20;99.90;;;;;;5100259;28;20077;-29
2022/04/22 05:10:29;;;;;;;10.45;5.30;;;10.20;99.90;;;;;;5094015;28;20438;-29
2022/04/22 05:12:54;;;;;;;7.18;5.07;;;10.10;99.90;;;;;;5104474;28;20099;-28
2022/04/22 05:15:24;;;;;;;12.85;5.05;;;10.30;99.90;;;;;;5095515;28;20103;-31
2022/04/22 05:17:51;;;;;;;13.20;4.75;;;10.30;99.90;;;;;;5096123;28;20468;-29
2022/04/22 05:20:19;;;;;;;6.78;5.00;;;10.30;99.90;;;;;;5100048;28;20110;-28
2022/04/22 05:22:46;;;;;;;6.88;4.30;;;10.30;99.90;;;;;;5114965;28;20372;-28
2022/04/22 05:25:13;;;;;;;10.23;4.78;;;10.30;99.90;;;;;;5093564;28;20020;-30
2022/04/22 05:27:39;;;;;;;7.82;5.05;;;10.30;99.90;;;;;;5092233;28;20496;-28
2022/04/22 05:32:51;;;;;;;9.07;4.57;;;10.40;99.90;;;;;;5111824;28;20050;-33
2022/04/22 05:35:22;;;;;;;7.72;5.18;;;10.40;99.90;;;;;;5093661;28;20020;-31
2022/04/22 05:37:52;;;;;;;9.57;6.18;;;10.50;99.90;;;;;;5092058;28;20403;-32
2022/04/22 05:40:20;;;;;;;9.38;4.85;;;10.50;99.90;;;;;;5099552;28;20059;-29
2022/04/22 05:42:46;;;;;;;;;;;10.50;99.90;;;;;;5095970;28;20086;-29
2022/04/22 05:45:13;;;;;;;15.80;5.57;;;10.50;99.90;;;;;;5095488;28;20436;-31
2022/04/22 05:47:39;;;;;;;8.63;5.60;;;10.50;99.90;;;;;;5093079;28;20019;-29
2022/04/22 05:50:07;;;;;;;12.20;5.93;;;10.70;99.90;;;;;;5099099;28;20035;-28
2022/04/22 05:52:34;;;;;;;13.85;6.75;;;10.80;99.90;;;;;;5115302;28;20498;-28
2022/04/22 05:55:03;;;;;;;9.48;6.03;;;10.80;99.90;;;;;;5100771;28;20051;-29
2022/04/22 05:57:32;;;;;;;15.35;7.15;;;10.80;99.90;;;;;;5093161;28;20028;-28
2022/04/22 05:59:59;;;;;;;10.40;6.45;;;10.80;99.90;;;;;;5092078;28;20035;-27
2022/04/22 06:02:26;;;;;;;10.13;6.45;;;11.00;99.90;;;;;;5093784;28;20039;-28
2022/04/22 06:04:52;;;;;;;9.30;6.63;;;11.10;99.90;;;;;;5094207;28;20110;-32
2022/04/22 06:07:18;;;;;;;18.00;7.20;;;11.20;99.90;;;;;;5096643;28;20035;-29
2022/04/22 06:12:28;;;;;;;13.20;6.82;;;11.40;99.90;;;;;;5097668;28;20101;-29
2022/04/22 06:14:54;;;;;;;13.10;6.82;;;11.60;99.90;;;;;;5093274;28;20422;-29
2022/04/22 06:17:20;;;;;;;13.13;7.38;;;11.60;99.90;;;;;;5099363;28;20020;-32
2022/04/22 06:19:46;;;;;;;12.13;6.97;;;11.60;99.90;;;;;;5114761;28;20038;-31
2022/04/22 06:22:11;;;;;;;16.65;7.22;;;11.70;99.90;;;;;;5100240;28;20476;-30
2022/04/22 06:24:37;;;;;;;20.67;6.93;;;11.60;99.90;;;;;;5093902;28;20059;-27
2022/04/22 06:27:03;;;;;;;14.10;6.57;;;11.60;99.90;;;;;;5096858;28;20024;-29
2022/04/22 06:29:28;;;;;;;15.20;7.07;;;11.60;99.90;;;;;;5098399;28;20068;-28
2022/04/22 06:31:54;;;;;;;16.92;7.63;;;11.70;99.90;;;;;;5114423;28;20020;-28
2022/04/22 06:34:20;;;;;;;14.13;7.45;;;11.80;99.90;;;;;;5112298;28;20050;-29
2022/04/22 06:36:46;;;;;;;13.95;8.05;;;11.80;99.90;;;;;;5104666;28;20482;-29
2022/04/22 06:39:13;;;;;;;16.38;7.40;;;11.70;99.90;;;;;;5114369;28;20023;-31
2022/04/22 06:47:09;;;;;;;17.35;7.68;;;11.90;99.90;;;;;;5089075;28;20085;-37
2022/04/22 06:49:35;;;;;;;13.20;7.60;;;12.00;99.90;;;;;;5088156;28;20084;-31
2022/04/22 06:52:01;;;;;;;17.95;8.35;;;12.10;99.90;;;;;;5089578;28;20031;-29
2022/04/22 06:54:45;;;;;;;24.08;8.30;;;12.30;99.90;;;;;;5091964;28;20469;-31
2022/04/22 06:57:11;;;;;;;11.55;7.05;;;12.40;99.90;;;;;;5090446;28;20035;-28
2022/04/22 06:59:37;;;;;;;18.13;8.02;;;12.40;99.90;;;;;;5091215;28;20028;-30
2022/04/22 07:02:03;;;;;;;15.65;7.53;;;12.50;99.90;;;;;;5093825;28;20021;-28
2022/04/22 07:04:29;;;;;;;14.23;7.07;;;12.50;99.90;;;;;;5093821;28;20020;-27
2022/04/22 07:06:55;;;;;;;14.60;7.30;;;12.50;99.90;;;;;;5092563;28;20025;-31
2022/04/22 07:09:20;;;;;;;11.55;7.20;;;12.60;99.90;;;;;;5092711;28;20032;-28
2022/04/22 07:11:49;;;;;;;20.15;8.02;;;12.70;99.90;;;;;;5092425;28;20027;-30
2022/04/22 07:14:15;;;;;;;17.95;7.07;;;12.70;99.90;;;;;;5093690;28;20456;-30
2022/04/22 07:16:43;;;;;;;14.48;7.97;;;12.80;99.90;;;;;;5087408;28;20030;-28
2022/04/22 07:19:08;;;;;;;;;;;12.80;99.90;;;;;;5089853;28;20527;-28
2022/04/22 07:21:34;;;;;;;12.93;7.22;;;12.90;99.90;;;;;;5092199;28;19995;-27
2022/04/22 07:24:00;;;;;;;13.63;7.78;;;12.80;99.90;;;;;;5090248;28;20127;-31
2022/04/22 07:31:57;;;;;;;14.52;7.25;;;13.50;99.90;;;;;;5090535;28;20032;-28
2022/04/22 07:34:23;;;;;;;15.23;6.38;;;13.60;99.90;;;;;;5091675;28;20391;-31
2022/04/22 07:36:48;;;;;;;13.32;7.47;;;13.60;99.90;;;;;;5089778;28;20464;-29
2022/04/22 07:39:14;;;;;;;14.93;8.20;;;13.80;99.90;;;;;;5093125;28;20028;-28
2022/04/22 07:41:41;;;;;;;9.60;6.22;;;13.90;99.90;;;;;;5092442;28;20480;-31
2022/04/22 07:46:58;;;;;;;12.07;7.03;;;14.30;99.90;;;;;;5090874;28;20133;-28
2022/04/22 07:49:28;;;;;;;10.77;6.25;;;14.50;99.90;;;;;;5085361;28;20617;-29
2022/04/22 07:51:54;;;;;;;11.95;6.63;;;14.60;99.90;;;;;;5090495;28;20073;-29
2022/04/22 07:54:19;;;;;;;11.75;6.07;;;14.70;99.90;;;;;;5092288;28;20445;-29
2022/04/22 07:56:45;;;;;;;10.27;5.93;;;14.70;99.90;;;;;;5092063;28;20016;-31
2022/04/22 07:59:11;;;;;;;9.85;6.22;;;14.70;99.90;;;;;;5091124;28;20024;-29
2022/04/22 08:01:37;;;;;;;10.35;4.97;;;14.50;99.90;;;;;;5091122;28;20479;-31
2022/04/22 08:04:03;;;;;;;11.18;5.80;;;14.50;99.90;;;;;;5091664;28;20012;-32
2022/04/22 08:06:29;;;;;;;13.30;6.75;;;14.70;99.90;;;;;;5091963;28;20069;-31
2022/04/22 08:08:55;;;;;;;15.48;6.10;;;15.00;99.90;;;;;;5090852;28;20028;-29
2022/04/22 08:11:20;;;;;;;10.98;6.25;;;15.00;99.90;;;;;;5092037;28;20051;-28
2022/04/22 08:13:46;;;;;;;11.13;5.97;;;14.90;99.90;;;;;;5092384;28;20093;-30
2022/04/22 08:16:13;;;;;;;8.43;5.28;;;15.10;99.90;;;;;;5092592;28;20031;-31
2022/04/22 08:18:39;;;;;;;10.27;5.85;;;15.20;99.90;;;;;;5076389;28;20456;-29
2022/04/22 08:21:07;;;;;;;10.18;5.43;;;15.30;99.90;;;;;;5094127;28;20027;-29
2022/04/22 08:23:33;;;;;;;13.80;5.72;;;15.30;99.90;;;;;;5096559;28;20028;-30
2022/04/22 08:25:58;;;;;;;9.70;5.78;;;15.40;99.90;;;;;;5094553;28;20047;-29
2022/04/22 08:28:24;;;;;;;9.50;5.18;;;15.60;99.90;;;;;;5094609;28;20035;-30
2022/04/22 08:30:50;;;;;;;10.75;5.85;;;15.80;99.90;;;;;;5093337;28;20476;-32
2022/04/22 08:33:16;;;;;;;9.45;5.43;;;15.80;99.90;;;;;;5096888;28;20048;-32
2022/04/22 08:35:42;;;;;;;11.23;5.55;;;15.90;99.90;;;;;;5096255;28;20019;-30
2022/04/22 08:38:07;;;;;;;8.68;4.63;;;16.00;99.90;;;;;;5095855;28;20032;-29
2022/04/22 08:40:37;;;;;;;7.45;4.90;;;16.20;99.90;;;;;;5096307;28;20107;-31
2022/04/22 08:43:04;;;;;;;10.40;4.65;;;16.30;99.90;;;;;;5094814;28;20472;-32
2022/04/22 08:45:29;;;;;;;7.23;4.53;;;16.50;99.90;;;;;;5096173;28;20387;-31
2022/04/22 08:50:42;;;;;;;8.85;4.78;;;16.80;99.40;;;;;;5095199;28;20035;-30
2022/04/22 08:53:11;;;;;;;10.98;5.03;;;17.10;99.00;;;;;;5092051;28;20464;-34
2022/04/22 08:55:39;;;;;;;10.25;4.40;;;17.00;98.40;;;;;;5082086;28;20024;-33
2022/04/22 08:58:05;;;;;;;7.72;4.15;;;17.00;98.50;;;;;;5093944;28;20032;-31
2022/04/22 09:00:34;;;;;;;9.90;4.90;;;17.40;98.50;;;;;;5093480;28;20031;-36
2022/04/22 09:03:00;;;;;;;11.35;5.80;;;17.50;98.40;;;;;;5092661;28;20444;-32
2022/04/22 09:05:26;;;;;;;8.88;5.65;;;17.60;98.50;;;;;;5094314;28;20107;-31
2022/04/22 09:07:53;;;;;;;16.75;4.88;;;17.60;97.80;;;;;;5094408;28;20112;-33
2022/04/22 09:10:19;;;;;;;9.70;4.63;;;17.40;97.40;;;;;;5087512;28;20031;-31
2022/04/22 09:12:56;;;;;;;7.68;4.50;;;17.70;96.90;;;;;;5089970;28;20468;-32
2022/04/22 09:15:24;;;;;;;10.00;4.70;;;18.00;96.80;;;;;;5086489;28;20036;-31
2022/04/22 09:17:57;;;;;;;5.43;3.83;;;18.10;96.70;;;;;;5086902;28;20099;-31
2022/04/22 09:20:27;;;;;;;7.38;4.32;;;18.50;96.10;;;;;;5086569;28;20127;-38
2022/04/22 09:22:52;;;;;;;5.35;4.00;;;19.00;95.30;;;;;;5085320;28;20035;-34
2022/04/22 09:25:23;;;;;;;4.45;3.58;;;19.10;95.40;;;;;;5086703;28;20028;-32
2022/04/22 09:27:49;;;;;;;6.18;3.72;;;18.80;95.40;;;;;;5086283;28;20383;-32
2022/04/22 09:30:14;;;;;;;7.72;4.10;;;18.50;95.40;;;;;;5086626;28;20029;-31
2022/04/22 09:32:43;;;;;;;6.93;3.88;;;18.40;95.40;;;;;;5085034;28;20044;-33
2022/04/22 09:35:12;;;;;;;8.00;4.43;;;18.20;95.70;;;;;;5085058;28;20016;-29
2022/04/22 09:43:39;;;;;;;7.95;4.25;;;18.40;96.10;;;;;;5086657;28;20495;-34
2022/04/22 09:46:06;;;;;;;5.32;4.15;;;18.40;96.10;;;;;;5085206;28;20024;-29
2022/04/22 09:51:30;;;;;;;;;;;18.20;96.80;;;;;;5087489;28;20032;-38
2022/04/22 09:54:07;;;;;;;8.65;4.57;;;18.40;95.90;;;;;;5084846;28;21239;-29
2022/04/22 09:56:33;;;;;;;11.80;4.05;;;18.50;95.20;;;;;;5086527;28;20024;-34
2022/04/22 09:59:19;;;;;;;5.28;3.55;;;18.40;95.90;;;;;;5085618;28;20491;-29
2022/04/22 10:01:46;;;;;;;7.03;4.22;;;18.30;95.80;;;;;;5086248;28;20062;-32
2022/04/22 10:04:12;;;;;;;8.23;4.68;;;18.20;96.00;;;;;;5086260;28;20028;-37
2022/04/22 10:06:39;;;;;;;5.90;3.42;;;18.30;96.00;;;;;;5085851;28;20046;-32
2022/04/22 10:09:05;;;;;;;13.23;4.05;;;18.20;96.00;;;;;;5085095;28;20426;-29
2022/04/22 10:11:31;;;;;;;9.88;4.78;;;18.10;96.00;;;;;;5086757;28;20092;-29
2022/04/22 10:13:59;;;;;;;5.75;3.90;;;17.90;96.30;;;;;;5084559;28;20024;-30
2022/04/22 10:16:27;;;;;;;8.18;4.15;;;18.10;95.90;;;;;;5085308;28;20027;-36
2022/04/22 10:18:53;;;;;;;6.60;3.78;;;18.60;95.90;;;;;;5085775;28;20563;-30
2022/04/22 10:21:20;;;;;;;6.35;4.07;;;18.80;95.50;;;;;;5084627;28;20069;-35
2022/04/22 10:23:48;;;;;;;5.40;3.53;;;18.50;95.70;;;;;;5085014;28;20063;-29
2022/04/22 10:26:15;;;;;;;7.22;3.10;;;18.50;95.60;;;;;;5084908;28;20400;-32
2022/04/22 10:28:44;;;;;;;12.15;3.00;;;18.40;95.00;;;;;;5087264;28;20081;-34
2022/04/22 10:31:10;;;;;;;14.52;3.45;;;18.40;95.20;;;;;;5086818;28;20020;-35
2022/04/22 10:33:44;;;;;;;9.10;3.15;;;18.40;95.10;;;;;;5089622;28;20377;-36
2022/04/22 10:36:18;;;;;;;8.25;3.63;;;18.60;95.00;;;;;;5086192;28;20040;-29
2022/04/22 10:38:50;;;;;;;6.18;3.67;;;18.80;95.00;;;;;;5084598;28;20484;-32
2022/04/22 10:41:22;;;;;;;8.95;3.88;;;19.00;94.20;;;;;;5090882;28;20464;-33
2022/04/22 10:49:39;;;;;;;9.75;4.20;;;18.90;94.50;;;;;;5092690;28;20638;-35
2022/04/22 10:52:20;;;;;;;5.32;3.70;;;18.70;94.80;;;;;;5093699;28;20113;-30
2022/04/22 10:54:52;;;;;;;11.45;4.35;;;18.70;95.30;;;;;;5085560;28;20491;-36
2022/04/22 10:57:20;;;;;;;5.35;3.55;;;18.60;96.20;;;;;;5084209;28;20031;-34
2022/04/22 10:59:46;;;;;;;;;;;18.70;95.50;;;;;;5087352;28;20118;-32
2022/04/22 11:02:31;;;;;;;4.20;3.75;;;19.00;95.80;;;;;;5081838;28;20360;-31
2022/04/22 11:05:21;;;;;;;5.90;3.90;;;19.20;94.90;;;;;;5082542;28;20530;-33
2022/04/22 11:10:48;;;;;;;3.92;3.42;;;19.00;95.60;;;;;;5090558;28;20036;-29
2022/04/22 11:13:34;;;;;;;6.22;4.05;;;19.20;95.80;;;;;;5092206;28;20077;-35
2022/04/22 11:16:22;;;;;;;4.63;3.20;;;19.50;95.20;;;;;;5090980;28;20028;-32
2022/04/22 11:19:10;;;;;;;11.70;2.95;;;19.50;94.80;;;;;;5082383;28;20301;-30
2022/04/22 11:21:39;;;;;;;5.25;3.28;;;19.30;93.40;;;;;;5092376;28;20077;-29
2022/04/22 11:24:29;;;;;;;4.50;2.78;;;18.90;93.60;;;;;;5091825;28;20077;-33
2022/04/22 11:27:11;;;;;;;8.38;3.08;;;19.00;93.10;;;;;;5083321;28;20036;-30
2022/04/22 11:29:39;;;;;;;5.72;2.72;;;19.00;93.40;;;;;;5092054;28;20540;-29
2022/04/22 11:32:11;;;;;;;5.70;3.08;;;19.00;92.90;;;;;;5090820;28;20016;-35
2022/04/22 11:35:10;;;;;;;8.13;3.60;;;19.10;93.20;;;;;;5091581;28;20471;-35
2022/04/22 11:37:37;;;;;;;4.35;3.33;;;19.50;94.30;;;;;;5089786;28;20036;-28
2022/04/22 11:40:06;;;;;;;8.95;3.30;;;19.50;94.10;;;;;;5092177;28;20032;-33
2022/04/22 11:42:37;;;;;;;3.58;3.13;;;19.30;94.70;;;;;;5091845;28;20436;-29
2022/04/22 11:45:03;;;;;;;6.30;3.20;;;19.10;94.30;;;;;;5092531;28;20081;-30
2022/04/22 11:47:29;;;;;;;6.95;3.30;;;18.80;94.30;;;;;;5089861;28;20039;-30
2022/04/22 11:49:56;;;;;;;3.42;2.42;;;19.10;94.50;;;;;;5082076;28;20024;-29
2022/04/22 11:52:22;;;;;;;4.57;2.65;;;19.50;94.00;;;;;;5091718;28;20455;-37
2022/04/22 11:54:49;;;;;;;3.42;2.75;;;19.80;92.80;;;;;;5092396;28;20024;-31
2022/04/22 11:57:17;;;;;;;3.42;2.80;;;19.90;92.70;;;;;;5092659;28;20032;-32
2022/04/22 12:05:31;;;;;;;5.80;2.90;;;20.00;92.50;;;;;;5094324;28;20013;-31
2022/04/22 12:05:33;;;;;;;4.50;2.15;;;19.80;91.70;;;;;;5077404;28;20028;-35
2022/04/22 12:08:10;;;;;;;5.03;2.13;;;20.00;90.10;;;;;;5087887;28;20096;-35
2022/04/22 12:10:37;;;;;;;4.85;1.60;;;20.10;88.60;;;;;;5091340;28;20228;-30
2022/04/22 12:13:04;;;;;;;2.92;1.90;;;19.90;88.70;;;;;;5092720;28;20032;-31
2022/04/22 12:15:30;;;;;;;2.92;2.03;;;19.90;88.10;;;;;;5096717;28;20479;-34
2022/04/22 12:17:57;;;;;;;2.70;1.80;;;19.90;87.90;;;;;;5093745;28;20036;-30
2022/04/22 12:20:25;;;;;;;3.53;2.08;;;19.80;87.40;;;;;;5095689;28;20026;-31
2022/04/22 12:22:52;;;;;;;3.08;1.95;;;19.70;89.00;;;;;;5088492;28;20077;-35
2022/04/22 12:25:20;;;;;;;2.47;2.28;;;19.80;88.80;;;;;;5092281;28;20024;-31
2022/04/22 12:28:13;;;;;;;4.28;2.00;;;20.10;87.40;;;;;;5090571;28;20412;-32
2022/04/22 12:30:40;;;;;;;4.75;1.70;;;20.30;87.00;;;;;;5092478;28;20095;-29
2022/04/22 12:33:15;;;;;;;1.63;1.52;;;20.50;87.80;;;;;;5081494;28;20043;-31
2022/04/22 12:35:42;;;;;;;6.93;1.95;;;20.80;86.20;;;;;;5095710;28;20031;-30
2022/04/22 12:38:11;;;;;;;11.63;2.55;;;20.80;84.60;;;;;;5095130;28;20380;-30
2022/04/22 12:40:48;;;;;;;3.15;1.77;;;20.30;86.70;;;;;;5091848;28;20024;-29
2022/04/22 12:43:28;;;;;;;4.72;1.98;;;20.00;86.80;;;;;;5091424;28;20039;-30
2022/04/22 12:54:16;;;;;;;2.70;1.88;;;20.00;87.20;;;;;;5095008;28;20051;-33
2022/04/22 12:56:52;;;;;;;4.63;2.03;;;20.20;87.20;;;;;;5094359;28;20028;-31
2022/04/22 12:59:18;;;;;;;3.97;1.58;;;20.20;86.60;;;;;;5088522;28;20013;-29
2022/04/22 13:01:45;;;;;;;5.32;1.95;;;20.20;87.20;;;;;;5094531;28;20035;-32
2022/04/22 13:04:23;;;;;;;2.97;1.90;;;19.90;88.00;;;;;;5094454;28;20103;-31
2022/04/22 13:06:49;;;;;;;2.88;1.90;;;20.40;86.70;;;;;;5092943;28;20475;-31
2022/04/22 13:09:17;;;;;;;2.97;2.13;;;20.90;85.50;;;;;;5094259;28;20024;-34
2022/04/22 13:11:43;;;;;;;4.63;2.30;;;21.20;86.40;;;;;;5092611;28;20016;-33
2022/04/22 13:14:10;;;;;;;2.67;1.70;;;21.40;85.30;;;;;;5095855;28;20514;-30
2022/04/22 13:16:36;;;;;;;2.40;1.77;;;21.40;84.70;;;;;;5093173;28;20289;-29
2022/04/22 13:19:02;;;;;;;4.10;2.05;;;21.40;85.20;;;;;;5091873;28;20016;-33
2022/04/22 13:21:28;;;;;;;5.28;1.73;;;21.00;84.10;;;;;;5094581;28;20491;-35
2022/04/22 13:24:13;;;;;;;3.33;1.95;;;20.60;85.60;;;;;;5094357;28;20024;-30
2022/04/22 13:26:39;;;;;;;13.13;2.60;;;20.20;84.60;;;;;;5093887;28;20475;-33
2022/04/22 13:29:05;;;;;;;4.60;1.75;;;19.80;86.20;;;;;;5092395;28;20024;-29
2022/04/22 13:31:32;;;;;;;7.65;2.10;;;19.80;86.00;;;;;;5092283;28;20096;-32
2022/04/22 13:33:58;;;;;;;2.13;2.03;;;20.00;84.60;;;;;;5093490;28;20149;-38
2022/04/22 13:36:23;;;;;;;4.60;2.03;;;20.40;84.90;;;;;;5094390;28;20028;-30
2022/04/22 13:38:49;;;;;;;5.28;1.92;;;20.70;84.30;;;;;;5090945;28;20111;-30
2022/04/22 13:41:15;;;;;;;3.50;2.08;;;20.60;84.20;;;;;;5093707;28;20061;-31
2022/04/22 13:43:43;;;;;;;5.85;1.92;;;20.60;83.90;;;;;;5090669;28;20081;-30
2022/04/22 13:54:20;;;;;;;1.80;1.35;;;20.70;84.80;;;;;;5091881;28;20035;-31
2022/04/22 13:56:46;;;;;;;4.28;2.30;;;20.90;85.20;;;;;;5091724;28;20040;-33
2022/04/22 13:59:12;;;;;;;2.10;1.90;;;21.20;84.60;;;;;;5091512;28;20103;-32
2022/04/22 14:01:41;;;;;;;1.90;1.50;;;21.50;83.90;;;;;;5092087;28;20024;-32
2022/04/22 14:04:07;;;;;;;4.55;1.67;;;21.30;83.20;;;;;;5092194;28;20472;-33
2022/04/22 14:06:33;;;;;;;4.40;1.55;;;20.90;84.70;;;;;;5094066;28;20031;-29
2022/04/22 14:08:59;;;;;;;3.08;1.77;;;20.90;83.80;;;;;;5092217;28;20069;-31
2022/04/22 14:11:28;;;;;;;6.63;1.67;;;20.90;84.30;;;;;;5092560;28;20511;-31
2022/04/22 14:13:54;;;;;;;2.90;1.83;;;20.60;84.50;;;;;;5091024;28;20024;-33